createdAt,value
2017-11-07T00:00:18.706Z,0
2017-11-07T00:01:20.308Z,0
2017-11-07T00:02:21.905Z,0
2017-11-07T00:03:23.511Z,0
2017-11-07T00:04:25.108Z,0
2017-11-07T00:05:26.715Z,0
2017-11-07T00:06:28.314Z,0
2017-11-07T00:07:29.940Z,0
2017-11-07T00:08:31.519Z,0
2017-11-07T00:09:33.124Z,0
2017-11-07T00:10:34.722Z,0
2017-11-07T00:11:36.325Z,0
2017-11-07T00:12:37.923Z,0
2017-11-07T00:13:39.529Z,0
2017-11-07T00:14:41.132Z,0
2017-11-07T00:15:42.739Z,0
2017-11-07T00:16:44.335Z,0
2017-11-07T00:17:45.934Z,0
2017-11-07T00:18:47.541Z,0
2017-11-07T00:19:49.138Z,0
2017-11-07T00:20:50.744Z,0
2017-11-07T00:21:52.344Z,0
2017-11-07T00:22:53.946Z,0
2017-11-07T00:23:55.545Z,0
2017-11-07T00:24:57.149Z,0
2017-11-07T00:25:58.744Z,0
2017-11-07T00:27:00.353Z,0
2017-11-07T00:28:01.951Z,0
2017-11-07T00:29:03.561Z,0
2017-11-07T00:30:05.154Z,0
2017-11-07T00:31:06.768Z,0
2017-11-07T00:32:08.359Z,0
2017-11-07T00:33:09.962Z,0
2017-11-07T00:34:11.566Z,0
2017-11-07T00:35:13.166Z,0
2017-11-07T00:36:14.768Z,0
2017-11-07T00:37:16.370Z,0
2017-11-07T00:38:17.974Z,0
2017-11-07T00:39:19.571Z,0
2017-11-07T00:40:21.169Z,0
2017-11-07T00:41:22.778Z,0
2017-11-07T00:42:24.381Z,0
2017-11-07T00:43:25.980Z,0
2017-11-07T00:44:27.578Z,0
2017-11-07T00:45:29.186Z,0
2017-11-07T00:46:30.788Z,0
2017-11-07T00:47:32.389Z,0
2017-11-07T00:48:33.988Z,0
2017-11-07T00:49:35.594Z,0
2017-11-07T00:50:37.192Z,0
2017-11-07T00:51:38.795Z,0
2017-11-07T00:52:40.393Z,0
2017-11-07T00:53:41.996Z,0
2017-11-07T00:54:43.594Z,0
2017-11-07T00:55:45.200Z,0
2017-11-07T00:56:46.799Z,0
2017-11-07T00:57:48.406Z,0
2017-11-07T00:58:50.004Z,0
2017-11-07T00:59:51.602Z,0
2017-11-07T01:00:53.202Z,0
2017-11-07T01:01:54.802Z,0
2017-11-07T01:02:56.409Z,0
2017-11-07T01:03:58.006Z,0
2017-11-07T01:04:59.609Z,0
2017-11-07T01:06:01.211Z,0
2017-11-07T01:07:02.811Z,0
2017-11-07T01:08:04.416Z,0
2017-11-07T01:09:06.019Z,0
2017-11-07T01:10:07.619Z,0
2017-11-07T01:11:09.221Z,0
2017-11-07T01:12:10.827Z,0
2017-11-07T01:13:12.428Z,0
2017-11-07T01:14:14.025Z,0
2017-11-07T01:15:15.625Z,0
2017-11-07T01:16:17.225Z,0
2017-11-07T01:17:18.829Z,0
2017-11-07T01:18:20.439Z,0
2017-11-07T01:19:22.039Z,0
2017-11-07T01:20:23.635Z,0
2017-11-07T01:21:25.241Z,0
2017-11-07T01:22:26.837Z,0
2017-11-07T01:23:28.439Z,0
2017-11-07T01:24:30.045Z,0
2017-11-07T01:25:31.651Z,0
2017-11-07T01:26:33.250Z,0
2017-11-07T01:27:34.849Z,0
2017-11-07T01:28:36.457Z,0
2017-11-07T01:29:38.061Z,0
2017-11-07T01:30:39.657Z,0
2017-11-07T01:31:41.256Z,0
2017-11-07T01:32:42.856Z,0
2017-11-07T01:33:44.458Z,0
2017-11-07T01:34:46.063Z,0
2017-11-07T01:35:47.666Z,0
2017-11-07T01:36:49.266Z,0
2017-11-07T01:37:50.869Z,0
2017-11-07T01:38:52.474Z,0
2017-11-07T01:39:54.079Z,0
2017-11-07T01:40:55.680Z,0
2017-11-07T01:41:57.284Z,0
2017-11-07T01:42:58.880Z,0
2017-11-07T01:44:00.486Z,0
2017-11-07T01:45:02.083Z,0
2017-11-07T01:46:03.691Z,0
2017-11-07T01:47:05.291Z,0
2017-11-07T01:48:06.899Z,0
2017-11-07T01:49:08.502Z,0
2017-11-07T01:50:10.099Z,0
2017-11-07T01:51:11.706Z,0
2017-11-07T01:52:13.303Z,0
2017-11-07T01:53:14.912Z,0
2017-11-07T01:54:16.518Z,0
2017-11-07T01:55:18.125Z,0
2017-11-07T01:56:19.724Z,0
2017-11-07T01:57:21.327Z,0
2017-11-07T01:58:22.927Z,0
2017-11-07T01:59:24.532Z,0
2017-11-07T02:00:26.132Z,0
2017-11-07T02:01:27.737Z,0
2017-11-07T02:02:29.335Z,0
2017-11-07T02:03:30.943Z,0
2017-11-07T02:04:32.541Z,0
2017-11-07T02:05:34.150Z,0
2017-11-07T02:06:35.755Z,0
2017-11-07T02:07:37.358Z,0
2017-11-07T02:08:38.956Z,0
2017-11-07T02:09:40.561Z,0
2017-11-07T02:10:42.165Z,0
2017-11-07T02:11:43.763Z,0
2017-11-07T02:12:45.363Z,0
2017-11-07T02:13:46.970Z,0
2017-11-07T02:14:48.574Z,0
2017-11-07T02:15:50.171Z,0
2017-11-07T02:16:51.774Z,0
2017-11-07T02:17:53.381Z,0
2017-11-07T02:18:54.983Z,0
2017-11-07T02:19:56.589Z,0
2017-11-07T02:20:58.188Z,0
2017-11-07T02:21:59.786Z,0
2017-11-07T02:23:01.387Z,0
2017-11-07T02:24:02.992Z,0
2017-11-07T02:25:04.603Z,0
2017-11-07T02:26:06.199Z,0
2017-11-07T02:27:07.800Z,0
2017-11-07T02:28:09.406Z,0
2017-11-07T02:29:11.005Z,0
2017-11-07T02:30:12.613Z,0
2017-11-07T02:31:14.214Z,0
2017-11-07T02:32:15.812Z,0
2017-11-07T02:33:17.411Z,0
2017-11-07T02:34:19.024Z,0
2017-11-07T02:35:20.625Z,0
2017-11-07T02:36:22.226Z,0
2017-11-07T02:37:23.833Z,0
2017-11-07T02:38:25.438Z,0
2017-11-07T02:39:27.037Z,0
2017-11-07T02:40:28.637Z,0
2017-11-07T02:41:30.237Z,0
2017-11-07T02:42:31.842Z,0
2017-11-07T02:43:33.451Z,0
2017-11-07T02:44:35.053Z,0
2017-11-07T02:45:36.650Z,0
2017-11-07T02:46:38.255Z,0
2017-11-07T02:47:39.854Z,0
2017-11-07T02:48:41.460Z,0
2017-11-07T02:49:43.057Z,0
2017-11-07T02:50:44.665Z,0
2017-11-07T02:51:46.268Z,0
2017-11-07T02:52:47.881Z,0
2017-11-07T02:53:49.476Z,0
2017-11-07T02:54:51.079Z,0
2017-11-07T02:55:52.679Z,0
2017-11-07T02:56:54.287Z,0
2017-11-07T02:57:55.887Z,0
2017-11-07T02:58:57.496Z,0
2017-11-07T02:59:59.098Z,0
2017-11-07T03:01:00.703Z,0
2017-11-07T03:02:02.308Z,0
2017-11-07T03:03:03.909Z,0
2017-11-07T03:04:05.515Z,0
2017-11-07T03:05:07.122Z,0
2017-11-07T03:06:08.721Z,0
2017-11-07T03:07:10.324Z,0
2017-11-07T03:08:11.929Z,0
2017-11-07T03:09:13.531Z,0
2017-11-07T03:10:15.129Z,0
2017-11-07T03:11:16.732Z,0
2017-11-07T03:12:18.338Z,0
2017-11-07T03:13:19.938Z,0
2017-11-07T03:14:21.546Z,0
2017-11-07T03:15:23.145Z,0
2017-11-07T03:16:24.743Z,0
2017-11-07T03:17:26.346Z,0
2017-11-07T03:18:27.949Z,0
2017-11-07T03:19:29.555Z,0
2017-11-07T03:20:31.156Z,0
2017-11-07T03:21:32.765Z,0
2017-11-07T03:22:34.363Z,0
2017-11-07T03:23:35.974Z,0
2017-11-07T03:24:37.573Z,0
2017-11-07T03:25:39.181Z,0
2017-11-07T03:26:40.782Z,0
2017-11-07T03:27:42.386Z,0
2017-11-07T03:28:43.990Z,0
2017-11-07T03:29:45.597Z,0
2017-11-07T03:30:47.198Z,0
2017-11-07T03:31:48.795Z,0
2017-11-07T03:32:50.400Z,0
2017-11-07T03:33:52.004Z,0
2017-11-07T03:34:53.610Z,0
2017-11-07T03:35:55.211Z,0
2017-11-07T03:36:56.812Z,0
2017-11-07T03:37:58.415Z,0
2017-11-07T03:39:00.020Z,0
2017-11-07T03:40:01.619Z,0
2017-11-07T03:41:03.221Z,0
2017-11-07T03:42:04.828Z,0
2017-11-07T03:43:06.430Z,0
2017-11-07T03:44:08.029Z,0
2017-11-07T03:45:09.630Z,0
2017-11-07T03:46:11.235Z,0
2017-11-07T03:47:12.835Z,0
2017-11-07T03:48:14.437Z,0
2017-11-07T03:49:16.043Z,0
2017-11-07T03:50:17.650Z,0
2017-11-07T03:51:19.246Z,0
2017-11-07T03:52:20.851Z,0
2017-11-07T03:53:22.455Z,0
2017-11-07T03:54:24.055Z,0
2017-11-07T03:55:25.654Z,0
2017-11-07T03:56:27.261Z,0
2017-11-07T03:57:28.881Z,0
2017-11-07T03:58:30.475Z,0
2017-11-07T03:59:32.078Z,0
2017-11-07T04:00:33.686Z,0
2017-11-07T04:01:35.283Z,0
2017-11-07T04:02:36.894Z,0
2017-11-07T04:03:38.492Z,0
2017-11-07T04:04:40.102Z,0
2017-11-07T04:05:41.705Z,0
2017-11-07T04:06:43.307Z,0
2017-11-07T04:07:44.906Z,0
2017-11-07T04:08:46.511Z,0
2017-11-07T04:09:48.112Z,0
2017-11-07T04:10:49.717Z,0
2017-11-07T04:11:51.315Z,0
2017-11-07T04:12:52.917Z,0
2017-11-07T04:13:54.516Z,0
2017-11-07T04:14:56.121Z,0
2017-11-07T04:15:57.721Z,0
2017-11-07T04:16:59.319Z,0
2017-11-07T04:18:00.925Z,0
2017-11-07T04:19:02.529Z,0
2017-11-07T04:20:04.133Z,0
2017-11-07T04:21:05.733Z,0
2017-11-07T04:22:07.329Z,0
2017-11-07T04:23:08.932Z,0
2017-11-07T04:24:10.532Z,0
2017-11-07T04:25:12.145Z,0
2017-11-07T04:26:13.749Z,0
2017-11-07T04:27:15.347Z,0
2017-11-07T04:28:16.944Z,0
2017-11-07T04:29:18.548Z,0
2017-11-07T04:30:20.154Z,0
2017-11-07T04:31:21.750Z,0
2017-11-07T04:32:23.355Z,0
2017-11-07T04:33:24.954Z,0
2017-11-07T04:34:26.553Z,0
2017-11-07T04:35:28.157Z,0
2017-11-07T04:36:29.759Z,0
2017-11-07T04:37:31.358Z,0
2017-11-07T04:38:32.961Z,0
2017-11-07T04:39:34.565Z,0
2017-11-07T04:40:36.165Z,0
2017-11-07T04:41:37.770Z,0
2017-11-07T04:42:39.372Z,0
2017-11-07T04:43:40.972Z,0
2017-11-07T04:44:42.569Z,0
2017-11-07T04:45:44.175Z,0
2017-11-07T04:46:45.778Z,0
2017-11-07T04:47:47.377Z,0
2017-11-07T04:48:48.981Z,0
2017-11-07T04:49:50.580Z,0
2017-11-07T04:50:52.179Z,0
2017-11-07T04:51:53.781Z,0
2017-11-07T04:52:55.382Z,0
2017-11-07T04:53:56.980Z,0
2017-11-07T04:54:58.585Z,0
2017-11-07T04:56:00.188Z,0
2017-11-07T04:57:01.788Z,0
2017-11-07T04:58:03.387Z,0
2017-11-07T04:59:05.000Z,0
2017-11-07T05:00:06.601Z,0
2017-11-07T05:01:08.204Z,0
2017-11-07T05:02:09.806Z,0
2017-11-07T05:03:11.411Z,0
2017-11-07T05:04:13.009Z,0
2017-11-07T05:05:14.612Z,0
2017-11-07T05:06:16.209Z,0
2017-11-07T05:07:17.809Z,0
2017-11-07T05:08:19.414Z,0
2017-11-07T05:09:21.022Z,0
2017-11-07T05:10:22.622Z,0
2017-11-07T05:11:24.224Z,0
2017-11-07T05:12:25.826Z,0
2017-11-07T05:13:27.425Z,0
2017-11-07T05:14:29.033Z,0
2017-11-07T05:15:30.640Z,0
2017-11-07T05:16:32.236Z,0
2017-11-07T05:17:33.834Z,0
2017-11-07T05:18:35.437Z,0
2017-11-07T05:19:37.039Z,0
2017-11-07T05:20:38.638Z,0
2017-11-07T05:21:40.235Z,0
2017-11-07T05:22:41.841Z,0
2017-11-07T05:23:43.444Z,0
2017-11-07T05:24:45.043Z,0
2017-11-07T05:25:46.639Z,0
2017-11-07T05:26:48.245Z,0
2017-11-07T05:27:49.845Z,0
2017-11-07T05:28:51.439Z,0
2017-11-07T05:29:53.048Z,0
2017-11-07T05:30:54.655Z,0
2017-11-07T05:31:56.253Z,0
2017-11-07T05:32:57.856Z,0
2017-11-07T05:33:59.453Z,0
2017-11-07T05:35:01.056Z,0
2017-11-07T05:36:02.660Z,0
2017-11-07T05:37:04.258Z,0
2017-11-07T05:38:05.859Z,0
2017-11-07T05:39:07.463Z,0
2017-11-07T05:40:09.063Z,0
2017-11-07T05:41:10.662Z,0
2017-11-07T05:42:12.262Z,0
2017-11-07T05:43:13.863Z,0
2017-11-07T05:44:15.463Z,0
2017-11-07T05:45:17.067Z,0
2017-11-07T05:46:18.687Z,0
2017-11-07T05:47:20.266Z,0
2017-11-07T05:48:21.870Z,0
2017-11-07T05:49:23.465Z,0
2017-11-07T05:50:25.070Z,0
2017-11-07T05:51:26.671Z,0
2017-11-07T05:52:28.273Z,0
2017-11-07T05:53:29.869Z,0
2017-11-07T05:54:31.474Z,0
2017-11-07T05:55:33.073Z,0
2017-11-07T05:56:34.678Z,0
2017-11-07T05:57:36.272Z,0
2017-11-07T05:58:37.879Z,0
2017-11-07T05:59:39.480Z,0
2017-11-07T06:00:41.084Z,0
2017-11-07T06:01:42.680Z,0
2017-11-07T06:02:44.281Z,0
2017-11-07T06:03:45.900Z,0
2017-11-07T06:04:47.493Z,0
2017-11-07T06:05:49.090Z,0
2017-11-07T06:06:50.692Z,0
2017-11-07T06:07:52.293Z,0
2017-11-07T06:08:53.895Z,0
2017-11-07T06:09:55.491Z,0
2017-11-07T06:10:57.097Z,0
2017-11-07T06:11:58.697Z,0
2017-11-07T06:13:00.302Z,0
2017-11-07T06:14:01.901Z,0
2017-11-07T06:15:03.498Z,0
2017-11-07T06:16:05.109Z,0
2017-11-07T06:17:06.707Z,0
2017-11-07T06:18:08.302Z,0
2017-11-07T06:19:09.911Z,0
2017-11-07T06:20:11.508Z,0
2017-11-07T06:21:13.114Z,0
2017-11-07T06:22:14.719Z,0
2017-11-07T06:23:16.319Z,5
2017-11-07T06:24:17.916Z,5
2017-11-07T06:25:19.520Z,5
2017-11-07T06:26:21.126Z,5
2017-11-07T06:27:22.726Z,5
2017-11-07T06:28:24.334Z,5
2017-11-07T06:29:25.938Z,5
2017-11-07T06:30:27.534Z,5
2017-11-07T06:31:29.135Z,5
2017-11-07T06:32:30.745Z,11
2017-11-07T06:33:32.355Z,11
2017-11-07T06:34:33.956Z,11
2017-11-07T06:35:35.558Z,16
2017-11-07T06:36:37.166Z,16
2017-11-07T06:37:38.768Z,16
2017-11-07T06:38:40.367Z,16
2017-11-07T06:39:41.969Z,22
2017-11-07T06:40:43.579Z,22
2017-11-07T06:41:45.187Z,28
2017-11-07T06:42:46.788Z,22
2017-11-07T06:43:48.389Z,33
2017-11-07T06:44:49.997Z,33
2017-11-07T06:45:51.599Z,39
2017-11-07T06:46:53.203Z,39
2017-11-07T06:47:54.810Z,39
2017-11-07T06:48:56.412Z,45
2017-11-07T06:49:58.015Z,45
2017-11-07T06:50:59.620Z,50
2017-11-07T06:52:01.222Z,50
2017-11-07T06:53:02.827Z,56
2017-11-07T06:54:04.426Z,61
2017-11-07T06:55:06.036Z,61
2017-11-07T06:56:07.646Z,67
2017-11-07T06:57:09.244Z,73
2017-11-07T06:58:10.841Z,78
2017-11-07T06:59:12.524Z,84
2017-11-07T07:00:14.131Z,84
2017-11-07T07:01:15.731Z,95
2017-11-07T07:02:17.347Z,90
2017-11-07T07:03:18.942Z,95
2017-11-07T07:04:20.554Z,95
2017-11-07T07:05:22.151Z,95
2017-11-07T07:06:23.766Z,101
2017-11-07T07:07:25.358Z,106
2017-11-07T07:08:26.969Z,112
2017-11-07T07:09:28.609Z,112
2017-11-07T07:10:30.213Z,118
2017-11-07T07:11:31.816Z,118
2017-11-07T07:12:33.423Z,123
2017-11-07T07:13:35.020Z,123
2017-11-07T07:14:36.633Z,123
2017-11-07T07:15:38.231Z,129
2017-11-07T07:16:39.836Z,135
2017-11-07T07:17:41.446Z,151
2017-11-07T07:18:43.054Z,163
2017-11-07T07:19:44.657Z,185
2017-11-07T07:20:46.259Z,191
2017-11-07T07:21:47.869Z,163
2017-11-07T07:22:49.475Z,157
2017-11-07T07:23:43.909Z,191
2017-11-07T07:24:45.517Z,180
2017-11-07T07:26:37.688Z,174
2017-11-07T07:27:39.285Z,174
2017-11-07T07:28:40.894Z,168
2017-11-07T07:29:42.496Z,168
2017-11-07T07:30:44.109Z,174
2017-11-07T07:31:45.704Z,185
2017-11-07T07:32:47.315Z,196
2017-11-07T07:33:48.919Z,196
2017-11-07T07:34:50.524Z,213
2017-11-07T07:35:52.127Z,236
2017-11-07T07:36:53.735Z,241
2017-11-07T07:37:55.337Z,241
2017-11-07T07:38:56.949Z,247
2017-11-07T07:39:58.558Z,247
2017-11-07T07:41:00.162Z,247
2017-11-07T07:42:01.765Z,241
2017-11-07T07:43:03.379Z,258
2017-11-07T07:44:04.981Z,286
2017-11-07T07:45:06.581Z,303
2017-11-07T07:46:08.188Z,292
2017-11-07T07:47:09.818Z,258
2017-11-07T07:48:11.410Z,236
2017-11-07T07:49:13.011Z,230
2017-11-07T07:50:14.612Z,230
2017-11-07T07:51:16.226Z,247
2017-11-07T07:52:17.833Z,264
2017-11-07T07:53:19.436Z,275
2017-11-07T07:54:21.045Z,286
2017-11-07T07:55:22.658Z,298
2017-11-07T07:56:24.267Z,303
2017-11-07T07:57:25.868Z,326
2017-11-07T07:58:27.472Z,331
2017-11-07T07:59:29.083Z,360
2017-11-07T08:00:30.692Z,393
2017-11-07T08:01:32.298Z,433
2017-11-07T08:02:33.905Z,348
2017-11-07T08:03:35.519Z,590
2017-11-07T08:04:37.137Z,686
2017-11-07T08:05:38.729Z,720
2017-11-07T08:06:40.339Z,720
2017-11-07T08:07:41.946Z,635
2017-11-07T08:08:43.560Z,720
2017-11-07T08:09:45.165Z,388
2017-11-07T08:10:46.777Z,691
2017-11-07T08:11:48.380Z,551
2017-11-07T08:12:49.993Z,720
2017-11-07T08:13:51.598Z,523
2017-11-07T08:14:53.211Z,489
2017-11-07T08:15:54.820Z,388
2017-11-07T08:16:56.435Z,354
2017-11-07T08:17:58.038Z,348
2017-11-07T08:18:59.649Z,354
2017-11-07T08:20:01.254Z,343
2017-11-07T08:21:02.867Z,315
2017-11-07T08:22:04.475Z,343
2017-11-07T08:23:06.089Z,388
2017-11-07T08:24:07.696Z,461
2017-11-07T08:25:09.309Z,461
2017-11-07T08:26:10.911Z,438
2017-11-07T08:27:12.517Z,495
2017-11-07T08:28:14.135Z,517
2017-11-07T08:29:15.742Z,534
2017-11-07T08:30:17.351Z,551
2017-11-07T08:31:18.957Z,568
2017-11-07T08:32:20.569Z,562
2017-11-07T08:33:22.186Z,630
2017-11-07T08:34:23.788Z,691
2017-11-07T08:35:25.395Z,703
2017-11-07T08:36:27.011Z,663
2017-11-07T08:37:28.620Z,765
2017-11-07T08:38:30.233Z,905
2017-11-07T08:39:31.839Z,731
2017-11-07T08:40:33.453Z,765
2017-11-07T08:41:35.059Z,736
2017-11-07T08:42:36.673Z,748
2017-11-07T08:43:38.290Z,691
2017-11-07T08:44:39.898Z,697
2017-11-07T08:45:41.506Z,680
2017-11-07T08:46:43.121Z,781
2017-11-07T08:47:44.733Z,680
2017-11-07T08:48:46.339Z,686
2017-11-07T08:49:47.948Z,646
2017-11-07T08:50:49.565Z,680
2017-11-07T08:51:51.173Z,742
2017-11-07T08:52:52.790Z,697
2017-11-07T08:53:54.400Z,630
2017-11-07T08:54:56.006Z,562
2017-11-07T08:55:57.616Z,585
2017-11-07T08:56:59.236Z,568
2017-11-07T08:58:00.846Z,579
2017-11-07T08:59:02.456Z,534
2017-11-07T09:00:04.075Z,551
2017-11-07T09:01:05.677Z,556
2017-11-07T09:02:07.294Z,697
2017-11-07T09:03:08.901Z,551
2017-11-07T09:04:10.514Z,545
2017-11-07T09:05:12.123Z,601
2017-11-07T09:06:13.739Z,618
2017-11-07T09:07:15.353Z,562
2017-11-07T09:08:16.962Z,534
2017-11-07T09:09:18.577Z,793
2017-11-07T09:10:20.209Z,798
2017-11-07T09:11:21.818Z,736
2017-11-07T09:12:23.427Z,686
2017-11-07T09:13:25.044Z,697
2017-11-07T09:14:26.657Z,635
2017-11-07T09:15:28.264Z,663
2017-11-07T09:16:29.875Z,579
2017-11-07T09:17:31.487Z,646
2017-11-07T09:18:33.095Z,708
2017-11-07T09:19:34.711Z,641
2017-11-07T09:20:36.318Z,725
2017-11-07T09:21:37.943Z,871
2017-11-07T09:22:39.542Z,579
2017-11-07T09:23:41.221Z,466
2017-11-07T09:24:42.834Z,478
2017-11-07T09:25:44.438Z,601
2017-11-07T09:26:46.056Z,675
2017-11-07T09:27:47.662Z,624
2017-11-07T09:28:49.279Z,658
2017-11-07T09:29:50.889Z,669
2017-11-07T09:30:52.502Z,691
2017-11-07T09:31:54.109Z,675
2017-11-07T09:32:55.724Z,675
2017-11-07T09:33:57.342Z,708
2017-11-07T09:34:58.956Z,776
2017-11-07T09:36:00.572Z,855
2017-11-07T09:37:02.177Z,810
2017-11-07T09:38:03.801Z,877
2017-11-07T09:39:05.415Z,877
2017-11-07T09:40:07.023Z,843
2017-11-07T09:41:08.636Z,849
2017-11-07T09:42:10.254Z,883
2017-11-07T09:43:11.863Z,838
2017-11-07T09:44:13.481Z,731
2017-11-07T09:45:15.088Z,708
2017-11-07T09:46:16.706Z,714
2017-11-07T09:47:18.316Z,736
2017-11-07T09:48:19.932Z,759
2017-11-07T09:49:21.542Z,787
2017-11-07T09:50:23.162Z,810
2017-11-07T09:51:24.776Z,804
2017-11-07T09:52:26.393Z,776
2017-11-07T09:53:28.004Z,815
2017-11-07T09:54:29.617Z,832
2017-11-07T09:55:31.235Z,826
2017-11-07T09:56:32.845Z,860
2017-11-07T09:57:34.468Z,900
2017-11-07T09:58:36.072Z,995
2017-11-07T09:59:37.684Z,1119
2017-11-07T10:00:39.306Z,1220
2017-11-07T10:01:40.932Z,2008
2017-11-07T10:02:42.549Z,2261
2017-11-07T10:03:44.159Z,2238
2017-11-07T10:04:45.784Z,2131
2017-11-07T10:05:47.394Z,2126
2017-11-07T10:06:49.014Z,2165
2017-11-07T10:07:50.637Z,2238
2017-11-07T10:08:52.254Z,2379
2017-11-07T10:09:53.866Z,2486
2017-11-07T10:10:55.481Z,2632
2017-11-07T10:11:57.105Z,3043
2017-11-07T10:12:58.719Z,3279
2017-11-07T10:14:00.338Z,3223
2017-11-07T10:15:01.950Z,3262
2017-11-07T10:16:03.562Z,3481
2017-11-07T10:17:05.182Z,2880
2017-11-07T10:18:06.808Z,3060
2017-11-07T10:19:08.422Z,2891
2017-11-07T10:20:10.052Z,2621
2017-11-07T10:21:11.660Z,2373
2017-11-07T10:22:13.275Z,2227
2017-11-07T10:23:14.898Z,2081
2017-11-07T10:24:16.513Z,2086
2017-11-07T10:25:18.129Z,2036
2017-11-07T10:26:19.749Z,2013
2017-11-07T10:27:21.363Z,1991
2017-11-07T10:28:22.976Z,1957
2017-11-07T10:29:24.600Z,1901
2017-11-07T10:30:26.221Z,1912
2017-11-07T10:31:27.835Z,1541
2017-11-07T10:32:29.460Z,1850
2017-11-07T10:33:31.076Z,1653
2017-11-07T10:34:32.706Z,1288
2017-11-07T10:35:34.312Z,798
2017-11-07T10:36:35.930Z,652
2017-11-07T10:37:37.545Z,613
2017-11-07T10:38:39.157Z,613
2017-11-07T10:39:40.777Z,635
2017-11-07T10:40:42.392Z,686
2017-11-07T10:41:44.012Z,691
2017-11-07T10:42:45.628Z,669
2017-11-07T10:43:47.237Z,646
2017-11-07T10:44:48.860Z,652
2017-11-07T10:45:50.480Z,675
2017-11-07T10:46:52.094Z,714
2017-11-07T10:47:53.715Z,720
2017-11-07T10:48:55.326Z,720
2017-11-07T10:49:56.950Z,714
2017-11-07T10:50:58.559Z,759
2017-11-07T10:52:00.183Z,933
2017-11-07T10:53:01.795Z,815
2017-11-07T10:54:03.414Z,810
2017-11-07T10:55:05.036Z,832
2017-11-07T10:56:06.655Z,1040
2017-11-07T10:57:08.266Z,1833
2017-11-07T10:58:09.881Z,2070
2017-11-07T10:59:11.496Z,2047
2017-11-07T11:00:13.118Z,1518
2017-11-07T11:01:14.736Z,1631
2017-11-07T11:02:16.357Z,1918
2017-11-07T11:03:17.976Z,2036
2017-11-07T11:04:19.589Z,2013
2017-11-07T11:05:21.205Z,1940
2017-11-07T11:06:22.826Z,1878
2017-11-07T11:07:24.444Z,1816
2017-11-07T11:08:26.061Z,1783
2017-11-07T11:09:27.678Z,1861
2017-11-07T11:10:29.303Z,1822
2017-11-07T11:11:30.913Z,1777
2017-11-07T11:12:32.533Z,1816
2017-11-07T11:13:34.148Z,1755
2017-11-07T11:14:35.769Z,1698
2017-11-07T11:15:37.384Z,1676
2017-11-07T11:16:39.002Z,1681
2017-11-07T11:17:40.619Z,1648
2017-11-07T11:18:42.244Z,1620
2017-11-07T11:19:43.864Z,1597
2017-11-07T11:20:45.476Z,1575
2017-11-07T11:21:47.094Z,1496
2017-11-07T11:22:48.718Z,1485
2017-11-07T11:23:50.341Z,1575
2017-11-07T11:24:51.953Z,1586
2017-11-07T11:25:53.580Z,1563
2017-11-07T11:26:55.191Z,1586
2017-11-07T11:27:56.810Z,1563
2017-11-07T11:28:58.434Z,1541
2017-11-07T11:30:00.050Z,1310
2017-11-07T11:31:01.670Z,1479
2017-11-07T11:32:03.291Z,1468
2017-11-07T11:33:04.910Z,1456
2017-11-07T11:34:06.528Z,1468
2017-11-07T11:35:08.142Z,1473
2017-11-07T11:36:09.765Z,1485
2017-11-07T11:37:11.379Z,1473
2017-11-07T11:38:13.003Z,1428
2017-11-07T11:39:14.614Z,1456
2017-11-07T11:40:16.236Z,1445
2017-11-07T11:41:17.849Z,1468
2017-11-07T11:42:19.469Z,1468
2017-11-07T11:43:21.086Z,1479
2017-11-07T11:44:22.708Z,1428
2017-11-07T11:45:24.321Z,1366
2017-11-07T11:46:25.942Z,1220
2017-11-07T11:47:27.560Z,1192
2017-11-07T11:48:29.176Z,1147
2017-11-07T11:49:30.791Z,1276
2017-11-07T11:50:32.405Z,1293
2017-11-07T11:51:34.027Z,1293
2017-11-07T11:52:35.643Z,1316
2017-11-07T11:53:37.263Z,1288
2017-11-07T11:54:38.880Z,1265
2017-11-07T11:55:40.490Z,1288
2017-11-07T11:56:42.107Z,1282
2017-11-07T11:57:43.733Z,1293
2017-11-07T11:58:45.347Z,1282
2017-11-07T11:59:46.963Z,1215
2017-11-07T12:00:48.582Z,1243
2017-11-07T12:01:50.201Z,1265
2017-11-07T12:02:51.817Z,1293
2017-11-07T12:03:53.430Z,1254
2017-11-07T12:04:55.054Z,1243
2017-11-07T12:05:56.667Z,1237
2017-11-07T12:06:58.291Z,1203
2017-11-07T12:07:59.903Z,1158
2017-11-07T12:09:01.522Z,1102
2017-11-07T12:10:03.134Z,1063
2017-11-07T12:11:04.747Z,905
2017-11-07T12:12:06.371Z,798
2017-11-07T12:13:07.985Z,765
2017-11-07T12:14:09.598Z,753
2017-11-07T12:15:11.209Z,731
2017-11-07T12:16:12.826Z,720
2017-11-07T12:17:14.439Z,703
2017-11-07T12:18:16.052Z,691
2017-11-07T12:19:17.665Z,691
2017-11-07T12:20:20.092Z,675
2017-11-07T12:21:21.702Z,663
2017-11-07T12:22:23.320Z,641
2017-11-07T12:23:24.926Z,646
2017-11-07T12:24:26.540Z,641
2017-11-07T12:25:28.152Z,635
2017-11-07T12:26:29.770Z,624
2017-11-07T12:27:31.385Z,624
2017-11-07T12:28:33.005Z,624
2017-11-07T12:29:34.615Z,613
2017-11-07T12:30:36.231Z,613
2017-11-07T12:31:37.844Z,607
2017-11-07T12:32:39.465Z,601
2017-11-07T12:33:41.081Z,601
2017-11-07T12:34:42.699Z,601
2017-11-07T12:35:44.320Z,607
2017-11-07T12:36:45.935Z,596
2017-11-07T12:37:47.547Z,500
2017-11-07T12:38:49.156Z,382
2017-11-07T12:39:50.774Z,416
2017-11-07T12:40:52.392Z,343
2017-11-07T12:41:54.011Z,303
2017-11-07T12:42:55.622Z,309
2017-11-07T12:43:57.237Z,337
2017-11-07T12:44:58.847Z,388
2017-11-07T12:46:00.466Z,416
2017-11-07T12:47:02.077Z,433
2017-11-07T12:48:03.694Z,438
2017-11-07T12:49:05.305Z,433
2017-11-07T12:50:06.921Z,421
2017-11-07T12:51:08.537Z,410
2017-11-07T12:52:10.153Z,399
2017-11-07T12:53:11.768Z,388
2017-11-07T12:54:13.393Z,382
2017-11-07T12:55:15.021Z,371
2017-11-07T12:56:16.631Z,365
2017-11-07T12:57:18.250Z,360
2017-11-07T12:58:19.865Z,354
2017-11-07T12:59:21.474Z,348
2017-11-07T13:00:23.100Z,343
2017-11-07T13:01:24.703Z,337
2017-11-07T13:02:26.324Z,331
2017-11-07T13:03:27.934Z,331
2017-11-07T13:04:29.561Z,331
2017-11-07T13:05:31.167Z,331
2017-11-07T13:06:32.783Z,320
2017-11-07T13:07:34.401Z,303
2017-11-07T13:08:36.015Z,298
2017-11-07T13:09:37.627Z,286
2017-11-07T13:10:39.248Z,281
2017-11-07T13:11:40.862Z,275
2017-11-07T13:12:42.483Z,270
2017-11-07T13:13:44.089Z,270
2017-11-07T13:14:45.703Z,270
2017-11-07T13:15:47.322Z,270
2017-11-07T13:16:48.941Z,275
2017-11-07T13:17:50.552Z,275
2017-11-07T13:18:52.165Z,270
2017-11-07T13:19:53.787Z,264
2017-11-07T13:20:55.402Z,253
2017-11-07T13:21:57.012Z,236
2017-11-07T13:22:58.625Z,230
2017-11-07T13:24:00.238Z,213
2017-11-07T13:25:01.854Z,208
2017-11-07T13:26:03.474Z,196
2017-11-07T13:27:05.085Z,191
2017-11-07T13:28:06.702Z,185
2017-11-07T13:29:08.313Z,191
2017-11-07T13:30:09.926Z,180
2017-11-07T13:31:11.540Z,180
2017-11-07T13:32:13.158Z,180
2017-11-07T13:33:14.783Z,174
2017-11-07T13:34:16.387Z,168
2017-11-07T13:35:17.998Z,163
2017-11-07T13:36:19.616Z,163
2017-11-07T13:37:21.236Z,157
2017-11-07T13:38:22.849Z,151
2017-11-07T13:39:24.463Z,146
2017-11-07T13:40:26.080Z,140
2017-11-07T13:41:27.697Z,140
2017-11-07T13:42:29.305Z,140
2017-11-07T13:43:30.920Z,140
2017-11-07T13:44:32.536Z,140
2017-11-07T13:45:34.155Z,146
2017-11-07T13:46:35.765Z,151
2017-11-07T13:47:37.378Z,151
2017-11-07T13:48:38.994Z,157
2017-11-07T13:49:40.603Z,151
2017-11-07T13:50:42.218Z,157
2017-11-07T13:51:43.829Z,157
2017-11-07T13:52:45.448Z,163
2017-11-07T13:53:47.059Z,168
2017-11-07T13:54:48.676Z,174
2017-11-07T13:55:50.291Z,174
2017-11-07T13:56:51.899Z,174
2017-11-07T13:57:53.512Z,168
2017-11-07T13:58:55.128Z,168
2017-11-07T13:59:56.742Z,168
2017-11-07T14:00:58.352Z,168
2017-11-07T14:01:59.965Z,168
2017-11-07T14:03:01.582Z,163
2017-11-07T14:04:03.191Z,163
2017-11-07T14:05:04.798Z,163
2017-11-07T14:06:06.405Z,157
2017-11-07T14:07:08.021Z,157
2017-11-07T14:08:09.635Z,151
2017-11-07T14:09:11.246Z,151
2017-11-07T14:10:12.860Z,151
2017-11-07T14:11:14.469Z,146
2017-11-07T14:12:16.080Z,146
2017-11-07T14:13:17.693Z,146
2017-11-07T14:14:19.308Z,146
2017-11-07T14:15:20.918Z,140
2017-11-07T14:16:22.529Z,140
2017-11-07T14:17:24.158Z,135
2017-11-07T14:18:25.772Z,135
2017-11-07T14:19:27.378Z,129
2017-11-07T14:20:28.990Z,129
2017-11-07T14:21:30.603Z,123
2017-11-07T14:22:32.217Z,123
2017-11-07T14:23:33.829Z,123
2017-11-07T14:24:35.436Z,123
2017-11-07T14:25:37.049Z,123
2017-11-07T14:26:38.662Z,123
2017-11-07T14:27:40.268Z,123
2017-11-07T14:28:41.878Z,123
2017-11-07T14:29:43.498Z,123
2017-11-07T14:30:45.107Z,118
2017-11-07T14:31:46.718Z,118
2017-11-07T14:32:48.325Z,118